sensor_id;sensor_type;location;lat;lon;timestamp;P1;durP1;ratioP1;P2;durP2;ratioP2
53503;SDS011;39387;50.998;22.340;2022-08-19T00:00:34;13.55;;;11.57;;
53503;SDS011;39387;50.998;22.340;2022-08-19T00:05:32;14.10;;;10.48;;
53503;SDS011;39387;50.998;22.340;2022-08-19T00:08:00;13.73;;;11.48;;
53503;SDS011;39387;50.998;22.340;2022-08-19T00:10:28;14.20;;;11.45;;
53503;SDS011;39387;50.998;22.340;2022-08-19T00:12:55;14.50;;;11.65;;
53503;SDS011;39387;50.998;22.340;2022-08-19T00:15:24;15.60;;;12.55;;
53503;SDS011;39387;50.998;22.340;2022-08-19T00:17:51;15.43;;;11.23;;
53503;SDS011;39387;50.998;22.340;2022-08-19T00:20:19;16.10;;;10.98;;
53503;SDS011;39387;50.998;22.340;2022-08-19T00:22:48;14.10;;;11.75;;
53503;SDS011;39387;50.998;22.340;2022-08-19T00:25:16;13.82;;;11.75;;
53503;SDS011;39387;50.998;22.340;2022-08-19T00:27:44;14.75;;;11.55;;
53503;SDS011;39387;50.998;22.340;2022-08-19T00:30:12;15.02;;;11.93;;
53503;SDS011;39387;50.998;22.340;2022-08-19T00:32:41;16.15;;;12.23;;
53503;SDS011;39387;50.998;22.340;2022-08-19T00:35:08;14.95;;;12.23;;
53503;SDS011;39387;50.998;22.340;2022-08-19T00:37:37;13.57;;;11.13;;
53503;SDS011;39387;50.998;22.340;2022-08-19T00:40:09;15.40;;;11.50;;
53503;SDS011;39387;50.998;22.340;2022-08-19T00:42:37;14.73;;;11.05;;
53503;SDS011;39387;50.998;22.340;2022-08-19T00:45:08;15.10;;;11.45;;
53503;SDS011;39387;50.998;22.340;2022-08-19T00:47:37;14.60;;;11.02;;
53503;SDS011;39387;50.998;22.340;2022-08-19T00:50:06;14.70;;;10.98;;
53503;SDS011;39387;50.998;22.340;2022-08-19T00:52:36;15.38;;;11.65;;
53503;SDS011;39387;50.998;22.340;2022-08-19T00:55:07;16.00;;;11.68;;
53503;SDS011;39387;50.998;22.340;2022-08-19T00:57:38;17.02;;;12.63;;
53503;SDS011;39387;50.998;22.340;2022-08-19T01:00:08;17.33;;;12.43;;
53503;SDS011;39387;50.998;22.340;2022-08-19T01:02:39;16.85;;;13.20;;
53503;SDS011;39387;50.998;22.340;2022-08-19T01:05:09;15.85;;;11.98;;
53503;SDS011;39387;50.998;22.340;2022-08-19T01:07:39;17.20;;;13.25;;
53503;SDS011;39387;50.998;22.340;2022-08-19T01:10:09;17.65;;;13.02;;
53503;SDS011;39387;50.998;22.340;2022-08-19T01:12:39;17.77;;;13.40;;
53503;SDS011;39387;50.998;22.340;2022-08-19T01:15:06;20.88;;;14.45;;
53503;SDS011;39387;50.998;22.340;2022-08-19T01:17:36;19.92;;;14.80;;
53503;SDS011;39387;50.998;22.340;2022-08-19T01:20:05;19.85;;;14.40;;
53503;SDS011;39387;50.998;22.340;2022-08-19T01:22:36;20.00;;;14.27;;
53503;SDS011;39387;50.998;22.340;2022-08-19T01:25:05;19.88;;;14.48;;
53503;SDS011;39387;50.998;22.340;2022-08-19T01:27:37;23.40;;;16.83;;
53503;SDS011;39387;50.998;22.340;2022-08-19T01:30:07;22.25;;;16.08;;
53503;SDS011;39387;50.998;22.340;2022-08-19T01:32:35;22.67;;;16.20;;
53503;SDS011;39387;50.998;22.340;2022-08-19T01:35:03;30.02;;;18.75;;
53503;SDS011;39387;50.998;22.340;2022-08-19T01:37:42;21.73;;;15.60;;
53503;SDS011;39387;50.998;22.340;2022-08-19T01:40:11;19.40;;;14.57;;
53503;SDS011;39387;50.998;22.340;2022-08-19T01:42:39;20.23;;;14.90;;
53503;SDS011;39387;50.998;22.340;2022-08-19T01:45:07;19.67;;;14.65;;
53503;SDS011;39387;50.998;22.340;2022-08-19T01:47:35;23.95;;;16.23;;
53503;SDS011;39387;50.998;22.340;2022-08-19T01:50:03;20.42;;;15.38;;
53503;SDS011;39387;50.998;22.340;2022-08-19T01:52:31;21.48;;;15.40;;
53503;SDS011;39387;50.998;22.340;2022-08-19T01:55:00;20.45;;;15.18;;
53503;SDS011;39387;50.998;22.340;2022-08-19T01:57:28;20.65;;;14.80;;
53503;SDS011;39387;50.998;22.340;2022-08-19T01:59:55;18.13;;;14.20;;
53503;SDS011;39387;50.998;22.340;2022-08-19T02:02:22;18.80;;;13.77;;
53503;SDS011;39387;50.998;22.340;2022-08-19T02:04:50;17.38;;;13.48;;
53503;SDS011;39387;50.998;22.340;2022-08-19T02:07:18;18.75;;;14.20;;
53503;SDS011;39387;50.998;22.340;2022-08-19T02:09:46;17.38;;;13.88;;
53503;SDS011;39387;50.998;22.340;2022-08-19T02:12:15;18.17;;;13.73;;
53503;SDS011;39387;50.998;22.340;2022-08-19T02:14:42;19.20;;;13.98;;
53503;SDS011;39387;50.998;22.340;2022-08-19T02:17:09;17.98;;;13.40;;
53503;SDS011;39387;50.998;22.340;2022-08-19T02:19:37;18.27;;;13.75;;
53503;SDS011;39387;50.998;22.340;2022-08-19T02:22:04;18.95;;;13.70;;
53503;SDS011;39387;50.998;22.340;2022-08-19T02:24:32;19.00;;;13.82;;
53503;SDS011;39387;50.998;22.340;2022-08-19T02:26:59;18.95;;;13.82;;
53503;SDS011;39387;50.998;22.340;2022-08-19T02:29:28;19.90;;;15.35;;
53503;SDS011;39387;50.998;22.340;2022-08-19T02:31:55;21.95;;;15.80;;
53503;SDS011;39387;50.998;22.340;2022-08-19T02:34:23;19.80;;;15.32;;
53503;SDS011;39387;50.998;22.340;2022-08-19T02:36:51;20.33;;;15.30;;
53503;SDS011;39387;50.998;22.340;2022-08-19T02:39:18;18.08;;;14.02;;
53503;SDS011;39387;50.998;22.340;2022-08-19T02:41:45;18.35;;;13.88;;
53503;SDS011;39387;50.998;22.340;2022-08-19T02:44:12;20.08;;;14.85;;
53503;SDS011;39387;50.998;22.340;2022-08-19T02:46:41;20.70;;;15.82;;
53503;SDS011;39387;50.998;22.340;2022-08-19T02:49:09;20.45;;;14.90;;
53503;SDS011;39387;50.998;22.340;2022-08-19T02:51:36;20.63;;;15.35;;
53503;SDS011;39387;50.998;22.340;2022-08-19T02:54:05;21.73;;;15.45;;
53503;SDS011;39387;50.998;22.340;2022-08-19T02:56:34;23.05;;;16.23;;
53503;SDS011;39387;50.998;22.340;2022-08-19T02:59:02;19.67;;;14.80;;
53503;SDS011;39387;50.998;22.340;2022-08-19T03:01:38;19.30;;;14.05;;
53503;SDS011;39387;50.998;22.340;2022-08-19T03:04:08;19.73;;;14.63;;
53503;SDS011;39387;50.998;22.340;2022-08-19T03:06:37;19.33;;;14.50;;
53503;SDS011;39387;50.998;22.340;2022-08-19T03:09:06;20.48;;;15.38;;
53503;SDS011;39387;50.998;22.340;2022-08-19T03:11:34;18.02;;;14.75;;
53503;SDS011;39387;50.998;22.340;2022-08-19T03:14:02;18.77;;;14.15;;
53503;SDS011;39387;50.998;22.340;2022-08-19T03:16:31;18.60;;;13.93;;
53503;SDS011;39387;50.998;22.340;2022-08-19T03:19:00;21.87;;;16.53;;
53503;SDS011;39387;50.998;22.340;2022-08-19T03:21:30;19.15;;;14.82;;
53503;SDS011;39387;50.998;22.340;2022-08-19T03:24:00;19.27;;;14.45;;
53503;SDS011;39387;50.998;22.340;2022-08-19T03:26:29;19.52;;;15.10;;
53503;SDS011;39387;50.998;22.340;2022-08-19T03:28:56;20.55;;;15.45;;
53503;SDS011;39387;50.998;22.340;2022-08-19T03:31:25;23.33;;;16.73;;
53503;SDS011;39387;50.998;22.340;2022-08-19T03:33:53;20.67;;;15.63;;
53503;SDS011;39387;50.998;22.340;2022-08-19T03:36:21;20.83;;;15.55;;
53503;SDS011;39387;50.998;22.340;2022-08-19T03:38:52;18.90;;;14.38;;
53503;SDS011;39387;50.998;22.340;2022-08-19T03:41:22;20.58;;;15.98;;
53503;SDS011;39387;50.998;22.340;2022-08-19T03:43:51;18.37;;;14.27;;
53503;SDS011;39387;50.998;22.340;2022-08-19T03:46:20;20.90;;;14.75;;
53503;SDS011;39387;50.998;22.340;2022-08-19T03:48:51;20.55;;;14.95;;
53503;SDS011;39387;50.998;22.340;2022-08-19T03:51:21;19.88;;;14.40;;
53503;SDS011;39387;50.998;22.340;2022-08-19T03:53:51;21.45;;;14.30;;
53503;SDS011;39387;50.998;22.340;2022-08-19T03:56:19;23.17;;;14.65;;
53503;SDS011;39387;50.998;22.340;2022-08-19T03:58:46;21.38;;;15.13;;
53503;SDS011;39387;50.998;22.340;2022-08-19T04:01:16;21.10;;;15.35;;
53503;SDS011;39387;50.998;22.340;2022-08-19T04:03:45;21.00;;;15.98;;
53503;SDS011;39387;50.998;22.340;2022-08-19T04:06:13;23.63;;;15.77;;
53503;SDS011;39387;50.998;22.340;2022-08-19T04:08:42;20.60;;;15.05;;
53503;SDS011;39387;50.998;22.340;2022-08-19T04:11:13;19.85;;;15.15;;
53503;SDS011;39387;50.998;22.340;2022-08-19T04:13:43;21.65;;;15.82;;
53503;SDS011;39387;50.998;22.340;2022-08-19T04:16:10;20.17;;;15.38;;
53503;SDS011;39387;50.998;22.340;2022-08-19T04:18:38;18.70;;;14.23;;
53503;SDS011;39387;50.998;22.340;2022-08-19T04:21:06;18.83;;;14.95;;
53503;SDS011;39387;50.998;22.340;2022-08-19T04:23:34;18.70;;;14.65;;
53503;SDS011;39387;50.998;22.340;2022-08-19T04:26:02;20.08;;;15.00;;
53503;SDS011;39387;50.998;22.340;2022-08-19T04:28:31;18.33;;;14.65;;
53503;SDS011;39387;50.998;22.340;2022-08-19T04:31:02;21.17;;;15.57;;
53503;SDS011;39387;50.998;22.340;2022-08-19T04:33:29;19.73;;;15.20;;
53503;SDS011;39387;50.998;22.340;2022-08-19T04:35:57;19.70;;;14.85;;
53503;SDS011;39387;50.998;22.340;2022-08-19T04:38:25;20.58;;;15.73;;
53503;SDS011;39387;50.998;22.340;2022-08-19T04:40:52;27.70;;;20.73;;
53503;SDS011;39387;50.998;22.340;2022-08-19T04:43:39;28.77;;;21.35;;
53503;SDS011;39387;50.998;22.340;2022-08-19T04:46:06;20.00;;;16.42;;
53503;SDS011;39387;50.998;22.340;2022-08-19T04:48:34;19.77;;;15.32;;
53503;SDS011;39387;50.998;22.340;2022-08-19T04:51:05;14.52;;;13.02;;
53503;SDS011;39387;50.998;22.340;2022-08-19T04:53:35;15.27;;;12.43;;
53503;SDS011;39387;50.998;22.340;2022-08-19T04:56:05;12.13;;;10.88;;
53503;SDS011;39387;50.998;22.340;2022-08-19T04:58:33;14.32;;;10.48;;
53503;SDS011;39387;50.998;22.340;2022-08-19T05:01:02;10.80;;;9.70;;
53503;SDS011;39387;50.998;22.340;2022-08-19T05:03:30;10.87;;;9.40;;
53503;SDS011;39387;50.998;22.340;2022-08-19T05:05:59;11.50;;;8.85;;
53503;SDS011;39387;50.998;22.340;2022-08-19T05:08:33;10.30;;;9.00;;
53503;SDS011;39387;50.998;22.340;2022-08-19T05:11:06;9.70;;;8.80;;
53503;SDS011;39387;50.998;22.340;2022-08-19T05:13:34;11.80;;;8.95;;
53503;SDS011;39387;50.998;22.340;2022-08-19T05:16:03;9.60;;;8.60;;
53503;SDS011;39387;50.998;22.340;2022-08-19T05:18:31;10.25;;;8.73;;
53503;SDS011;39387;50.998;22.340;2022-08-19T05:21:18;9.38;;;8.55;;
53503;SDS011;39387;50.998;22.340;2022-08-19T05:24:04;11.15;;;9.27;;
53503;SDS011;39387;50.998;22.340;2022-08-19T05:26:34;10.07;;;9.07;;
53503;SDS011;39387;50.998;22.340;2022-08-19T05:29:02;10.48;;;9.40;;
53503;SDS011;39387;50.998;22.340;2022-08-19T05:31:31;10.15;;;9.23;;
53503;SDS011;39387;50.998;22.340;2022-08-19T05:33:59;10.63;;;9.55;;
53503;SDS011;39387;50.998;22.340;2022-08-19T05:36:26;11.55;;;10.00;;
53503;SDS011;39387;50.998;22.340;2022-08-19T05:38:54;10.80;;;9.70;;
53503;SDS011;39387;50.998;22.340;2022-08-19T05:41:22;13.23;;;9.85;;
53503;SDS011;39387;50.998;22.340;2022-08-19T05:43:56;9.73;;;8.82;;
53503;SDS011;39387;50.998;22.340;2022-08-19T05:46:24;9.75;;;8.85;;
53503;SDS011;39387;50.998;22.340;2022-08-19T05:48:53;11.68;;;9.23;;
53503;SDS011;39387;50.998;22.340;2022-08-19T05:51:21;10.27;;;9.27;;
53503;SDS011;39387;50.998;22.340;2022-08-19T05:53:49;10.15;;;8.80;;
53503;SDS011;39387;50.998;22.340;2022-08-19T05:56:17;10.07;;;9.05;;
53503;SDS011;39387;50.998;22.340;2022-08-19T05:58:45;10.65;;;9.13;;
53503;SDS011;39387;50.998;22.340;2022-08-19T06:01:15;9.52;;;8.52;;
53503;SDS011;39387;50.998;22.340;2022-08-19T06:03:43;9.52;;;8.43;;
53503;SDS011;39387;50.998;22.340;2022-08-19T06:06:13;8.98;;;8.13;;
53503;SDS011;39387;50.998;22.340;2022-08-19T06:08:42;9.77;;;8.88;;
53503;SDS011;39387;50.998;22.340;2022-08-19T06:11:17;9.02;;;8.13;;
53503;SDS011;39387;50.998;22.340;2022-08-19T06:13:47;9.45;;;8.55;;
53503;SDS011;39387;50.998;22.340;2022-08-19T06:16:18;8.95;;;8.15;;
53503;SDS011;39387;50.998;22.340;2022-08-19T06:18:48;8.27;;;7.47;;
53503;SDS011;39387;50.998;22.340;2022-08-19T06:23:46;9.63;;;8.65;;
53503;SDS011;39387;50.998;22.340;2022-08-19T06:26:15;8.77;;;7.88;;
53503;SDS011;39387;50.998;22.340;2022-08-19T06:28:42;8.88;;;8.00;;
53503;SDS011;39387;50.998;22.340;2022-08-19T06:31:12;8.90;;;8.10;;
53503;SDS011;39387;50.998;22.340;2022-08-19T06:33:41;8.02;;;7.28;;
53503;SDS011;39387;50.998;22.340;2022-08-19T06:36:15;8.38;;;7.57;;
53503;SDS011;39387;50.998;22.340;2022-08-19T06:38:45;8.55;;;7.75;;
53503;SDS011;39387;50.998;22.340;2022-08-19T06:41:12;9.13;;;8.23;;
53503;SDS011;39387;50.998;22.340;2022-08-19T06:43:40;8.93;;;8.05;;
53503;SDS011;39387;50.998;22.340;2022-08-19T06:46:12;8.15;;;7.32;;
53503;SDS011;39387;50.998;22.340;2022-08-19T06:48:40;8.60;;;7.80;;
53503;SDS011;39387;50.998;22.340;2022-08-19T06:51:07;8.40;;;7.60;;
53503;SDS011;39387;50.998;22.340;2022-08-19T06:53:35;9.20;;;8.25;;
53503;SDS011;39387;50.998;22.340;2022-08-19T06:56:05;8.40;;;7.60;;
53503;SDS011;39387;50.998;22.340;2022-08-19T06:58:32;8.67;;;7.77;;
53503;SDS011;39387;50.998;22.340;2022-08-19T07:01:00;8.38;;;7.53;;
53503;SDS011;39387;50.998;22.340;2022-08-19T07:03:29;9.18;;;8.18;;
53503;SDS011;39387;50.998;22.340;2022-08-19T07:05:58;8.87;;;7.90;;
53503;SDS011;39387;50.998;22.340;2022-08-19T07:08:30;7.82;;;7.13;;
53503;SDS011;39387;50.998;22.340;2022-08-19T07:10:57;8.45;;;7.65;;
53503;SDS011;39387;50.998;22.340;2022-08-19T07:13:26;8.57;;;7.07;;
53503;SDS011;39387;50.998;22.340;2022-08-19T07:15:54;7.53;;;6.83;;
53503;SDS011;39387;50.998;22.340;2022-08-19T07:18:21;7.45;;;6.85;;
53503;SDS011;39387;50.998;22.340;2022-08-19T07:20:48;7.68;;;6.97;;
53503;SDS011;39387;50.998;22.340;2022-08-19T07:23:16;7.30;;;6.70;;
53503;SDS011;39387;50.998;22.340;2022-08-19T07:25:43;7.57;;;6.88;;
53503;SDS011;39387;50.998;22.340;2022-08-19T07:28:11;7.60;;;6.88;;
53503;SDS011;39387;50.998;22.340;2022-08-19T07:30:40;7.10;;;6.50;;
53503;SDS011;39387;50.998;22.340;2022-08-19T07:33:08;7.25;;;6.57;;
53503;SDS011;39387;50.998;22.340;2022-08-19T07:35:35;7.18;;;6.55;;
53503;SDS011;39387;50.998;22.340;2022-08-19T07:38:03;7.38;;;6.68;;
53503;SDS011;39387;50.998;22.340;2022-08-19T07:40:30;7.40;;;6.65;;
53503;SDS011;39387;50.998;22.340;2022-08-19T07:42:57;7.38;;;6.70;;
53503;SDS011;39387;50.998;22.340;2022-08-19T07:45:25;7.80;;;6.78;;
53503;SDS011;39387;50.998;22.340;2022-08-19T07:47:54;7.65;;;6.95;;
53503;SDS011;39387;50.998;22.340;2022-08-19T07:50:21;8.05;;;7.30;;
53503;SDS011;39387;50.998;22.340;2022-08-19T07:52:49;8.18;;;7.38;;
53503;SDS011;39387;50.998;22.340;2022-08-19T07:55:18;8.25;;;7.00;;
53503;SDS011;39387;50.998;22.340;2022-08-19T07:57:46;8.23;;;7.30;;
53503;SDS011;39387;50.998;22.340;2022-08-19T08:00:14;7.47;;;6.88;;
53503;SDS011;39387;50.998;22.340;2022-08-19T08:02:42;7.85;;;7.13;;
53503;SDS011;39387;50.998;22.340;2022-08-19T08:05:11;8.35;;;7.03;;
53503;SDS011;39387;50.998;22.340;2022-08-19T08:07:55;8.82;;;7.93;;
53503;SDS011;39387;50.998;22.340;2022-08-19T08:10:40;11.38;;;8.10;;
53503;SDS011;39387;50.998;22.340;2022-08-19T08:13:08;9.35;;;8.13;;
53503;SDS011;39387;50.998;22.340;2022-08-19T08:15:35;8.57;;;7.75;;
53503;SDS011;39387;50.998;22.340;2022-08-19T08:18:03;10.18;;;7.78;;
53503;SDS011;39387;50.998;22.340;2022-08-19T08:20:33;8.25;;;7.45;;
53503;SDS011;39387;50.998;22.340;2022-08-19T08:23:00;9.20;;;8.30;;
53503;SDS011;39387;50.998;22.340;2022-08-19T08:25:45;9.00;;;7.13;;
53503;SDS011;39387;50.998;22.340;2022-08-19T08:28:12;9.60;;;7.80;;
53503;SDS011;39387;50.998;22.340;2022-08-19T08:30:39;8.43;;;7.60;;
53503;SDS011;39387;50.998;22.340;2022-08-19T08:33:09;8.25;;;7.45;;
53503;SDS011;39387;50.998;22.340;2022-08-19T08:35:38;8.07;;;7.28;;
53503;SDS011;39387;50.998;22.340;2022-08-19T08:38:10;9.00;;;7.50;;
53503;SDS011;39387;50.998;22.340;2022-08-19T08:40:43;7.70;;;6.97;;
53503;SDS011;39387;50.998;22.340;2022-08-19T08:43:18;8.18;;;7.35;;
53503;SDS011;39387;50.998;22.340;2022-08-19T08:45:50;8.23;;;7.53;;
53503;SDS011;39387;50.998;22.340;2022-08-19T08:48:21;8.10;;;7.20;;
53503;SDS011;39387;50.998;22.340;2022-08-19T08:51:00;8.98;;;7.70;;
53503;SDS011;39387;50.998;22.340;2022-08-19T08:53:30;9.45;;;7.03;;
53503;SDS011;39387;50.998;22.340;2022-08-19T08:55:58;8.35;;;7.50;;
53503;SDS011;39387;50.998;22.340;2022-08-19T08:58:27;8.30;;;6.97;;
53503;SDS011;39387;50.998;22.340;2022-08-19T09:00:58;8.60;;;7.55;;
53503;SDS011;39387;50.998;22.340;2022-08-19T09:03:26;7.88;;;7.10;;
53503;SDS011;39387;50.998;22.340;2022-08-19T09:05:57;8.20;;;7.40;;
53503;SDS011;39387;50.998;22.340;2022-08-19T09:11:22;8.50;;;7.50;;
53503;SDS011;39387;50.998;22.340;2022-08-19T09:14:06;7.68;;;6.93;;
53503;SDS011;39387;50.998;22.340;2022-08-19T09:16:38;8.18;;;7.05;;
53503;SDS011;39387;50.998;22.340;2022-08-19T09:19:06;9.52;;;7.03;;
53503;SDS011;39387;50.998;22.340;2022-08-19T09:21:37;8.07;;;6.90;;
53503;SDS011;39387;50.998;22.340;2022-08-19T09:24:05;7.68;;;6.97;;
53503;SDS011;39387;50.998;22.340;2022-08-19T09:26:32;8.18;;;6.40;;
53503;SDS011;39387;50.998;22.340;2022-08-19T09:29:00;7.22;;;6.40;;
53503;SDS011;39387;50.998;22.340;2022-08-19T09:31:30;8.85;;;6.90;;
53503;SDS011;39387;50.998;22.340;2022-08-19T09:33:58;7.63;;;6.82;;
53503;SDS011;39387;50.998;22.340;2022-08-19T09:36:29;7.40;;;6.57;;
53503;SDS011;39387;50.998;22.340;2022-08-19T09:39:00;7.22;;;5.90;;
53503;SDS011;39387;50.998;22.340;2022-08-19T09:41:27;6.18;;;5.45;;
53503;SDS011;39387;50.998;22.340;2022-08-19T09:43:56;6.70;;;5.88;;
53503;SDS011;39387;50.998;22.340;2022-08-19T09:46:24;5.82;;;5.32;;
53503;SDS011;39387;50.998;22.340;2022-08-19T09:48:53;6.63;;;5.47;;
53503;SDS011;39387;50.998;22.340;2022-08-19T09:51:24;6.93;;;6.30;;
53503;SDS011;39387;50.998;22.340;2022-08-19T09:53:54;6.65;;;6.00;;
53503;SDS011;39387;50.998;22.340;2022-08-19T09:56:24;6.90;;;6.30;;
53503;SDS011;39387;50.998;22.340;2022-08-19T09:58:51;5.63;;;5.13;;
53503;SDS011;39387;50.998;22.340;2022-08-19T10:01:19;6.90;;;6.30;;
53503;SDS011;39387;50.998;22.340;2022-08-19T10:03:49;6.43;;;5.88;;
53503;SDS011;39387;50.998;22.340;2022-08-19T10:06:18;7.10;;;6.22;;
53503;SDS011;39387;50.998;22.340;2022-08-19T10:08:45;6.47;;;5.70;;
53503;SDS011;39387;50.998;22.340;2022-08-19T10:11:13;6.47;;;5.88;;
53503;SDS011;39387;50.998;22.340;2022-08-19T10:13:44;6.73;;;6.00;;
53503;SDS011;39387;50.998;22.340;2022-08-19T10:16:12;6.03;;;5.30;;
53503;SDS011;39387;50.998;22.340;2022-08-19T10:18:41;7.55;;;5.60;;
53503;SDS011;39387;50.998;22.340;2022-08-19T10:21:10;6.32;;;5.82;;
53503;SDS011;39387;50.998;22.340;2022-08-19T10:23:40;7.13;;;5.95;;
53503;SDS011;39387;50.998;22.340;2022-08-19T10:26:11;6.78;;;5.78;;
53503;SDS011;39387;50.998;22.340;2022-08-19T10:28:40;6.03;;;5.50;;
53503;SDS011;39387;50.998;22.340;2022-08-19T10:31:10;6.38;;;5.88;;
53503;SDS011;39387;50.998;22.340;2022-08-19T10:33:38;6.28;;;5.68;;
53503;SDS011;39387;50.998;22.340;2022-08-19T10:36:07;7.90;;;6.03;;
53503;SDS011;39387;50.998;22.340;2022-08-19T10:41:08;7.07;;;6.45;;
53503;SDS011;39387;50.998;22.340;2022-08-19T10:43:37;6.35;;;5.85;;
53503;SDS011;39387;50.998;22.340;2022-08-19T10:46:05;7.20;;;6.18;;
53503;SDS011;39387;50.998;22.340;2022-08-19T10:48:34;6.47;;;5.85;;
53503;SDS011;39387;50.998;22.340;2022-08-19T10:51:03;6.28;;;5.78;;
53503;SDS011;39387;50.998;22.340;2022-08-19T10:53:48;6.15;;;5.43;;
53503;SDS011;39387;50.998;22.340;2022-08-19T10:56:16;6.22;;;5.72;;
53503;SDS011;39387;50.998;22.340;2022-08-19T10:59:00;6.00;;;5.50;;
53503;SDS011;39387;50.998;22.340;2022-08-19T11:01:28;6.07;;;5.47;;
53503;SDS011;39387;50.998;22.340;2022-08-19T11:03:59;5.82;;;5.32;;
53503;SDS011;39387;50.998;22.340;2022-08-19T11:06:26;6.25;;;5.68;;
53503;SDS011;39387;50.998;22.340;2022-08-19T11:08:55;6.25;;;5.75;;
53503;SDS011;39387;50.998;22.340;2022-08-19T11:11:22;5.82;;;5.30;;
53503;SDS011;39387;50.998;22.340;2022-08-19T11:13:50;6.60;;;5.88;;
53503;SDS011;39387;50.998;22.340;2022-08-19T11:16:19;6.00;;;5.40;;
53503;SDS011;39387;50.998;22.340;2022-08-19T11:18:48;8.30;;;5.45;;
53503;SDS011;39387;50.998;22.340;2022-08-19T11:21:21;6.30;;;5.60;;
53503;SDS011;39387;50.998;22.340;2022-08-19T11:23:50;6.10;;;5.15;;
53503;SDS011;39387;50.998;22.340;2022-08-19T11:26:19;5.45;;;4.95;;
53503;SDS011;39387;50.998;22.340;2022-08-19T11:28:47;6.80;;;5.13;;
53503;SDS011;39387;50.998;22.340;2022-08-19T11:31:16;5.93;;;5.40;;
53503;SDS011;39387;50.998;22.340;2022-08-19T11:33:45;6.43;;;5.00;;
53503;SDS011;39387;50.998;22.340;2022-08-19T11:36:16;7.45;;;6.35;;
53503;SDS011;39387;50.998;22.340;2022-08-19T11:38:45;6.88;;;5.78;;
53503;SDS011;39387;50.998;22.340;2022-08-19T11:41:14;5.90;;;5.40;;
53503;SDS011;39387;50.998;22.340;2022-08-19T11:43:42;5.95;;;5.35;;
53503;SDS011;39387;50.998;22.340;2022-08-19T11:46:10;5.30;;;4.80;;
53503;SDS011;39387;50.998;22.340;2022-08-19T11:48:39;5.30;;;4.80;;
53503;SDS011;39387;50.998;22.340;2022-08-19T11:51:08;6.78;;;4.82;;
53503;SDS011;39387;50.998;22.340;2022-08-19T11:53:36;5.88;;;5.30;;
53503;SDS011;39387;50.998;22.340;2022-08-19T11:56:06;6.00;;;5.40;;
53503;SDS011;39387;50.998;22.340;2022-08-19T11:58:34;5.85;;;5.32;;
53503;SDS011;39387;50.998;22.340;2022-08-19T12:01:04;6.32;;;5.72;;
53503;SDS011;39387;50.998;22.340;2022-08-19T12:03:32;5.80;;;5.30;;
53503;SDS011;39387;50.998;22.340;2022-08-19T12:06:02;6.20;;;5.05;;
53503;SDS011;39387;50.998;22.340;2022-08-19T12:08:30;5.13;;;4.72;;
53503;SDS011;39387;50.998;22.340;2022-08-19T12:10:57;5.15;;;4.63;;
53503;SDS011;39387;50.998;22.340;2022-08-19T12:13:27;6.57;;;5.30;;
53503;SDS011;39387;50.998;22.340;2022-08-19T12:15:55;5.03;;;4.65;;
53503;SDS011;39387;50.998;22.340;2022-08-19T12:18:23;4.88;;;4.47;;
53503;SDS011;39387;50.998;22.340;2022-08-19T12:20:51;5.63;;;5.10;;
53503;SDS011;39387;50.998;22.340;2022-08-19T12:23:19;4.95;;;4.50;;
53503;SDS011;39387;50.998;22.340;2022-08-19T12:25:47;4.75;;;4.30;;
53503;SDS011;39387;50.998;22.340;2022-08-19T12:28:17;4.80;;;4.40;;
53503;SDS011;39387;50.998;22.340;2022-08-19T12:30:47;5.93;;;4.47;;
53503;SDS011;39387;50.998;22.340;2022-08-19T12:33:15;5.10;;;4.35;;
53503;SDS011;39387;50.998;22.340;2022-08-19T12:35:43;5.15;;;4.63;;
53503;SDS011;39387;50.998;22.340;2022-08-19T12:38:12;5.00;;;4.50;;
53503;SDS011;39387;50.998;22.340;2022-08-19T12:40:40;4.90;;;4.45;;
53503;SDS011;39387;50.998;22.340;2022-08-19T12:43:08;5.00;;;3.90;;
53503;SDS011;39387;50.998;22.340;2022-08-19T12:45:37;4.22;;;3.83;;
53503;SDS011;39387;50.998;22.340;2022-08-19T12:48:06;4.25;;;3.85;;
53503;SDS011;39387;50.998;22.340;2022-08-19T12:50:34;4.75;;;4.03;;
53503;SDS011;39387;50.998;22.340;2022-08-19T12:53:01;3.95;;;3.65;;
53503;SDS011;39387;50.998;22.340;2022-08-19T12:55:28;4.50;;;4.10;;
53503;SDS011;39387;50.998;22.340;2022-08-19T12:57:56;4.65;;;4.25;;
53503;SDS011;39387;50.998;22.340;2022-08-19T13:00:23;4.70;;;4.05;;
53503;SDS011;39387;50.998;22.340;2022-08-19T13:02:51;4.50;;;4.10;;
53503;SDS011;39387;50.998;22.340;2022-08-19T13:05:21;5.18;;;4.70;;
53503;SDS011;39387;50.998;22.340;2022-08-19T13:07:50;4.60;;;4.15;;
53503;SDS011;39387;50.998;22.340;2022-08-19T13:10:18;5.03;;;3.85;;
53503;SDS011;39387;50.998;22.340;2022-08-19T13:15:16;4.55;;;4.10;;
53503;SDS011;39387;50.998;22.340;2022-08-19T13:17:45;4.80;;;4.30;;
53503;SDS011;39387;50.998;22.340;2022-08-19T13:20:14;4.50;;;4.10;;
53503;SDS011;39387;50.998;22.340;2022-08-19T13:22:44;5.43;;;4.35;;
53503;SDS011;39387;50.998;22.340;2022-08-19T13:25:12;5.38;;;4.03;;
53503;SDS011;39387;50.998;22.340;2022-08-19T13:27:42;4.60;;;4.20;;
53503;SDS011;39387;50.998;22.340;2022-08-19T13:30:10;4.93;;;4.53;;
53503;SDS011;39387;50.998;22.340;2022-08-19T13:32:56;4.80;;;4.20;;
53503;SDS011;39387;50.998;22.340;2022-08-19T13:35:40;6.78;;;4.22;;
53503;SDS011;39387;50.998;22.340;2022-08-19T13:40:38;4.93;;;4.43;;
53503;SDS011;39387;50.998;22.340;2022-08-19T13:43:06;4.95;;;4.55;;
53503;SDS011;39387;50.998;22.340;2022-08-19T13:45:35;5.40;;;5.00;;
53503;SDS011;39387;50.998;22.340;2022-08-19T13:48:03;6.25;;;4.72;;
53503;SDS011;39387;50.998;22.340;2022-08-19T13:50:34;5.90;;;4.90;;
53503;SDS011;39387;50.998;22.340;2022-08-19T13:53:04;5.25;;;4.75;;
53503;SDS011;39387;50.998;22.340;2022-08-19T13:55:33;5.30;;;4.80;;
53503;SDS011;39387;50.998;22.340;2022-08-19T14:00:30;5.68;;;5.18;;
53503;SDS011;39387;50.998;22.340;2022-08-19T14:02:58;5.40;;;4.90;;
53503;SDS011;39387;50.998;22.340;2022-08-19T14:05:27;5.38;;;4.88;;
53503;SDS011;39387;50.998;22.340;2022-08-19T14:07:55;5.70;;;4.93;;
53503;SDS011;39387;50.998;22.340;2022-08-19T14:10:23;6.35;;;4.80;;
53503;SDS011;39387;50.998;22.340;2022-08-19T14:12:56;6.07;;;4.68;;
53503;SDS011;39387;50.998;22.340;2022-08-19T14:15:25;5.40;;;4.90;;
53503;SDS011;39387;50.998;22.340;2022-08-19T14:17:53;5.15;;;4.65;;
53503;SDS011;39387;50.998;22.340;2022-08-19T14:20:22;7.47;;;5.10;;
53503;SDS011;39387;50.998;22.340;2022-08-19T14:22:50;5.80;;;4.80;;
53503;SDS011;39387;50.998;22.340;2022-08-19T14:25:19;5.25;;;4.78;;
53503;SDS011;39387;50.998;22.340;2022-08-19T14:27:47;6.25;;;4.68;;
53503;SDS011;39387;50.998;22.340;2022-08-19T14:30:19;6.38;;;4.72;;
53503;SDS011;39387;50.998;22.340;2022-08-19T14:32:48;5.30;;;4.40;;
53503;SDS011;39387;50.998;22.340;2022-08-19T14:35:15;6.05;;;4.65;;
53503;SDS011;39387;50.998;22.340;2022-08-19T14:37:44;5.40;;;4.85;;
53503;SDS011;39387;50.998;22.340;2022-08-19T14:40:12;5.07;;;4.47;;
53503;SDS011;39387;50.998;22.340;2022-08-19T14:42:41;5.03;;;4.40;;
53503;SDS011;39387;50.998;22.340;2022-08-19T14:45:10;5.00;;;4.50;;
53503;SDS011;39387;50.998;22.340;2022-08-19T14:47:44;5.70;;;4.65;;
53503;SDS011;39387;50.998;22.340;2022-08-19T14:50:12;5.22;;;4.13;;
53503;SDS011;39387;50.998;22.340;2022-08-19T14:52:41;4.97;;;4.22;;
53503;SDS011;39387;50.998;22.340;2022-08-19T14:55:09;5.95;;;4.45;;